Providence, Rhode Island
Traffic Map
Current Weather Conditions
Providence, Rhode Island
Overcast Moderate Snow
Overcast
-4°
Feels Like: -12°
Wind Chill: -12° Ceiling: 1000
Heat Index: -4° Visibility: 0.5mi
Dew Point: -5° Wind: 23mph
Humidity: 92% Direction: 350° (N)
Pressure: 29.79in Gusts: 31mph
Raw Report DataKPVD 081410Z 35020G27KT 1/2SM R05/2400V4000FT SN FZFG VV010 M04/M05 A2979 RMK AO2 PK WND 35027/1407 P0001 T10391050
Traffic Incident Summary
Active as of:
Severity:
Category:
InformationThere was an issue retrieving the traffic information for this location. Please try a different location or try again shortly.
Advertisements
Track Severe Weather on mobile